• Join FlightAware (Why Join?)
  • Login
  • US Flag 
05:38PM EDT


 

Airport Tracker/Info


-or-


 

Live Flight TrackerFlight Track Log ✈ GTI4241 ✈ 16-Feb-2014 ✈ KJFK - KIAB

Flight Track Log - Related Links

Times and Time Zones

All times are in EST time to prevent confusion due to time zone crossing. See the GTI4241 flight status page for this flight to view local times or setup timezone preferences in your user account.

Time Position Orientation Groundspeed Altitude Reporting Facility
EST Latitude Longitude Course Direction KTS MPH feet Rate Location/Type
08:56PM 40.5833 -73.8167 150° Southeast 204 235 1,900  Level New York TRACON
08:57PM 40.5167 -73.7667 150° Southeast 297 342 4,400 2,280 Climbing New York TRACON
09:03PM 40.9670 -73.6572 150° Southeast 371 427 17,900 2,280 Climbing FlightAware ADS-B (KSNC)
09:04PM 41.0295 -73.7078 329° Northwest 378 435 19,600 2,400 Climbing FlightAware ADS-B (KSNC)
09:04PM 41.0745 -73.7445 328° Northwest 383 441 20,800 2,160 Climbing FlightAware ADS-B (KSNC)
09:04PM 41.0949 -73.7638 325° Northwest 377 434 21,300 1,680 Climbing FlightAware ADS-B (KSNC)
09:05PM 41.1207 -73.8171 303° West 375 432 22,000 720 Climbing FlightAware ADS-B (KSNC)
09:05PM 41.1328 -73.8818 284° West 374 430 22,000 720 Level FlightAware ADS-B (KSNC)
09:07PM 41.1579 -74.0457 282° West 378 435 23,300 1,320 Climbing FlightAware ADS-B (KSNC)
09:07PM 41.1684 -74.1186 281° West 380 437 24,300 1,320 Climbing FlightAware ADS-B (KSNC)
09:08PM 41.1884 -74.3171 278° West 384 442 25,900 840 Climbing FlightAware ADS-B (KWWD)
09:09PM 41.1961 -74.4004 277° West 391 450 26,000 420 Climbing FlightAware ADS-B (KWWD)
09:10PM 41.1652 -74.5379 253° West 392 451 26,600 780 Climbing FlightAware ADS-B (KWWD)
09:10PM 41.1434 -74.5858 239° Southwest 412 474 27,100 1,560 Climbing FlightAware ADS-B (KWWD)
09:11PM 41.1051 -74.6686 238° Southwest 413 475 28,200 1,320 Climbing FlightAware ADS-B (KWWD)
09:12PM 41.0668 -74.7522 239° Southwest 422 486 28,800 1,200 Climbing FlightAware ADS-B (KWWD)
09:12PM 41.0299 -74.8306 238° Southwest 430 495 29,700 1,320 Climbing FlightAware ADS-B (KWWD)
09:13PM 40.9898 -74.9183 239° Southwest 428 493 30,500 1,020 Climbing FlightAware ADS-B (KWWD)
09:14PM 40.9494 -75.0379 246° West 426 490 31,300 1,080 Climbing FlightAware ADS-B (KWWD)
09:14PM 40.9248 -75.1319 251° West 425 489 32,100 1,260 Climbing FlightAware ADS-B (KWWD)
09:15PM 40.9034 -75.2261 253° West 421 484 32,900 1,020 Climbing FlightAware ADS-B (KWWD)
09:16PM 40.8892 -75.2964 255° West 425 489 33,300 900 Climbing FlightAware ADS-B (KWWD)
09:16PM 40.8711 -75.3847 255° West 426 490 33,900 960 Climbing FlightAware ADS-B (KWWD)
09:17PM 40.8517 -75.4725 254° West 429 494 34,400 960 Climbing FlightAware ADS-B (KWWD)
09:17PM 40.8318 -75.5541 252° West 426 490 35,000 900 Climbing FlightAware ADS-B (KWWD)
09:18PM 40.8138 -75.6281 252° West 424 488 35,400 780 Climbing FlightAware ADS-B (KWWD)
09:18PM 40.7874 -75.7385 252° West 423 487 36,000 180 Climbing FlightAware ADS-B (KWWD)
09:20PM 40.7269 -75.9902 252° West 421 484 36,000  Level FlightAware ADS-B
09:21PM 40.7010 -76.0981 252° West 423 487 36,000  Level FlightAware ADS-B (KWWD)
09:21PM 40.6841 -76.1669 252° West 424 488 36,000  Level FlightAware ADS-B (KPVU)
09:22PM 40.6692 -76.2309 253° West 418 481 36,000  Level FlightAware ADS-B (KWWD)
09:23PM 40.6783 -76.3714 275° West 416 479 36,000  Level FlightAware ADS-B (KWWD)
09:23PM 40.6804 -76.3911 278° West 409 471 36,000  Level FlightAware ADS-B (KWWD)
09:23PM 40.6861 -76.4706 275° West 411 473 36,000  Level FlightAware ADS-B (KWWD)
09:24PM 40.6894 -76.5460 273° West 414 476 36,000  Level FlightAware ADS-B (KWWD)
09:25PM 40.6948 -76.6489 274° West 415 478 36,000  Level FlightAware ADS-B (KWWD)
09:25PM 40.7023 -76.7543 275° West 413 475 36,000  Level FlightAware ADS-B (KPVU)
09:27PM 40.7216 -77.0376 275° West 407 468 36,000  Level FlightAware ADS-B (KWWD)
09:28PM 40.7288 -77.1435 275° West 407 468 36,000  Level FlightAware ADS-B (KWWD)
09:28PM 40.7342 -77.2276 275° West 407 468 36,000  Level FlightAware ADS-B (KWWD)
09:32PM 40.7632 -77.6832 275° West 404 465 36,000  Level FlightAware ADS-B (KWWD)
09:32PM 40.7707 -77.8061 275° West 405 466 36,000  Level FlightAware ADS-B (KWWD)
09:33PM 40.7752 -77.8850 274° West 406 467 36,000  Level FlightAware ADS-B (KWWD)
09:34PM 40.7794 -77.9658 274° West 404 465 36,000  Level Cleveland Center
09:35PM 40.7886 -78.1122 275° West 402 463 36,000  Level Cleveland Center
09:36PM 40.7972 -78.2589 274° West 401 461 36,000  Level Cleveland Center
09:42PM 40.8424 -79.1179 274° West 393 452 36,000  Level FlightAware ADS-B
09:44PM 40.8608 -79.5067 274° West 391 450 36,000  Level FlightAware ADS-B
09:45PM 40.8675 -79.6572 273° West 393 452 36,000  Level FlightAware ADS-B
09:47PM 40.8789 -79.9212 273° West 395 455 36,000  Level FlightAware ADS-B
09:48PM 40.8833 -80.0164 273° West 396 456 36,000  Level Cleveland Center
09:49PM 40.8886 -80.1583 273° West 393 452 36,000  Level Cleveland Center
09:54PM 40.9159 -80.9058 273° West 378 435 36,000  Level FlightAware ADS-B
09:55PM 40.9209 -81.0582 273° West 379 436 36,000  Level FlightAware ADS-B
09:56PM 40.9219 -81.0883 273° West 379 436 36,000  Level FlightAware ADS-B
09:57PM 40.9269 -81.2503 272° West 379 436 36,000  Level FlightAware ADS-B
09:59PM 40.9375 -81.6157 272° West 375 432 36,000  Level FlightAware ADS-B
10:00PM 40.9411 -81.7331 272° West 375 432 36,000  Level Cleveland Center
10:01PM 40.9450 -81.8728 272° West 375 432 36,000  Level Cleveland Center
10:02PM 40.9475 -82.0119 271° West 374 430 36,000  Level Cleveland Center
10:03PM 40.9508 -82.1503 272° West 372 428 36,000  Level Cleveland Center
10:04PM 40.9539 -82.2883 272° West 373 429 36,000  Level Cleveland Center
10:05PM 40.9453 -82.4278 265° West 376 433 36,000  Level Cleveland Center
10:06PM 40.9192 -82.5703 256° West 390 449 36,000  Level Cleveland Center
10:07PM 40.8961 -82.7111 258° West 390 449 36,000  Level Cleveland Center
10:08PM 40.8744 -82.8517 259° West 387 445 36,000  Level Cleveland Center
10:09PM 40.8578 -82.9453 257° West 388 447 36,000  Level Indianapolis Center
10:10PM 40.8356 -83.0853 258° West 388 447 36,000  Level Indianapolis Center
10:11PM 40.8114 -83.2247 257° West 388 447 36,000  Level Indianapolis Center
10:12PM 40.7881 -83.3653 258° West 388 447 36,000  Level Indianapolis Center
10:13PM 40.7628 -83.5119 257° West 388 447 36,000  Level Indianapolis Center
10:14PM 40.7378 -83.6497 257° West 388 447 36,000  Level Indianapolis Center
10:15PM 40.7142 -83.7858 257° West 388 447 36,000  Level Indianapolis Center
10:16PM 40.6900 -83.9244 257° West 388 447 36,000  Level Indianapolis Center
10:17PM 40.6661 -84.0586 257° West 384 442 36,000  Level Indianapolis Center
10:18PM 40.6417 -84.1967 257° West 385 443 36,000  Level Indianapolis Center
10:19PM 40.6125 -84.3597 257° West 385 443 36,000  Level Indianapolis Center
10:20PM 40.5878 -84.4961 257° West 385 443 36,000  Level Indianapolis Center
10:21PM 40.5628 -84.6336 257° West 385 443 36,000  Level Indianapolis Center
10:22PM 40.5378 -84.7692 256° West 385 443 36,000  Level Indianapolis Center
10:23PM 40.5128 -84.9075 257° West 387 445 36,000  Level Indianapolis Center
10:24PM 40.4875 -85.0397 256° West 388 447 36,000  Level Indianapolis Center
10:25PM 40.4619 -85.1753 256° West 388 447 36,000  Level Indianapolis Center
10:26PM 40.4358 -85.3103 256° West 387 445 36,000  Level Indianapolis Center
10:27PM 40.4108 -85.4453 256° West 386 444 36,000  Level Indianapolis Center
10:28PM 40.3853 -85.5789 256° West 385 443 36,000  Level Indianapolis Center
10:29PM 40.3544 -85.7383 256° West 383 441 36,000  Level Indianapolis Center
10:30PM 40.3286 -85.8714 256° West 383 441 36,000  Level Indianapolis Center
10:31PM 40.3039 -86.0036 256° West 381 438 36,000  Level Indianapolis Center
10:32PM 40.2769 -86.1356 255° West 381 438 36,000  Level Indianapolis Center
10:33PM 40.2508 -86.2681 256° West 380 437 36,000  Level Indianapolis Center
10:34PM 40.2239 -86.4000 255° West 380 437 36,000  Level Indianapolis Center
10:35PM 40.1978 -86.5322 256° West 380 437 36,000  Level Indianapolis Center
10:41PM 40.0327 -87.3328 256° West 380 437 36,000  Level FlightAware ADS-B
10:43PM 39.9829 -87.5687 255° West 379 436 36,000  Level FlightAware ADS-B
10:44PM 39.9769 -87.5974 255° West 379 436 36,000  Level FlightAware ADS-B
10:45PM 39.9352 -87.7927 254° West 378 435 36,000  Level FlightAware ADS-B
10:46PM 39.9050 -87.9327 254° West 377 434 36,000  Level FlightAware ADS-B
10:46PM 39.8880 -88.0134 255° West 377 434 36,000  Level FlightAware ADS-B
10:47PM 39.8703 -88.0940 254° West 376 433 36,000  Level FlightAware ADS-B
10:48PM 39.8515 -88.1811 254° West 376 433 36,000  Level FlightAware ADS-B
10:48PM 39.8330 -88.2656 254° West 375 432 36,000  Level FlightAware ADS-B
10:49PM 39.8183 -88.3330 254° West 375 432 36,000  Level FlightAware ADS-B
10:49PM 39.7997 -88.4174 254° West 375 432 36,000  Level FlightAware ADS-B
10:50PM 39.7774 -88.5172 254° West 376 433 36,000  Level FlightAware ADS-B
10:51PM 39.7594 -88.5995 254° West 377 434 36,000  Level FlightAware ADS-B
10:51PM 39.7396 -88.6865 254° West 377 434 36,000  Level FlightAware ADS-B
10:53PM 39.6866 -88.9234 254° West 377 434 36,000  Level FlightAware ADS-B
10:54PM 39.6556 -89.0688 255° West 372 428 36,000  Level FlightAware ADS-B
10:56PM 39.6310 -89.2119 257° West 369 425 36,000  Level FlightAware ADS-B
10:56PM 39.6184 -89.2808 257° West 368 423 36,000  Level FlightAware ADS-B
10:57PM 39.6046 -89.3555 257° West 367 422 36,000  Level FlightAware ADS-B
10:57PM 39.5938 -89.4112 256° West 367 422 36,000  Level FlightAware ADS-B
10:58PM 39.5798 -89.4881 257° West 366 421 36,000  Level FlightAware ADS-B
10:58PM 39.5659 -89.5625 256° West 365 420 36,000  Level FlightAware ADS-B
10:59PM 39.5539 -89.6282 257° West 364 419 36,000  Level FlightAware ADS-B
10:59PM 39.5410 -89.6980 257° West 363 418 36,000  Level FlightAware ADS-B
11:00PM 39.5225 -89.7981 257° West 363 418 36,000  Level Kansas City Center
11:01PM 39.4944 -89.9483 256° West 361 415 36,000  Level Kansas City Center
11:02PM 39.4708 -90.0744 256° West 362 417 36,000  Level Kansas City Center
11:03PM 39.4464 -90.1992 256° West 361 415 36,000  Level Kansas City Center
11:04PM 39.4233 -90.3217 256° West 358 412 36,000  Level Kansas City Center
11:05PM 39.3992 -90.4458 256° West 358 412 36,000  Level Kansas City Center
11:06PM 39.3753 -90.5689 256° West 356 410 36,000  Level Kansas City Center
11:07PM 39.3514 -90.6914 256° West 356 410 36,000  Level Kansas City Center
11:08PM 39.3267 -90.8150 256° West 356 410 36,000  Level Kansas City Center
11:09PM 39.3031 -90.9372 256° West 355 409 36,000  Level Kansas City Center
11:10PM 39.2778 -91.0600 255° West 355 409 36,000  Level Kansas City Center
11:12PM 39.2536 -91.1833 256° West 356 410 36,000  Level Kansas City Center
11:13PM 39.2250 -91.3294 256° West 354 407 36,000  Level Kansas City Center
11:14PM 39.2006 -91.4525 256° West 355 409 36,000  Level Kansas City Center
11:15PM 39.1753 -91.5747 255° West 355 409 36,000  Level Kansas City Center
11:16PM 39.1508 -91.6983 256° West 356 410 36,000  Level Kansas City Center
11:17PM 39.1275 -91.8092 255° West 356 410 36,000  Level Kansas City Center
11:18PM 39.1022 -91.9322 255° West 356 410 36,000  Level Kansas City Center
11:19PM 39.0703 -92.0769 254° West 352 405 36,000  Level Kansas City Center
11:20PM 39.0447 -92.2006 255° West 355 409 36,000  Level Kansas City Center
11:21PM 39.0183 -92.3247 255° West 358 412 36,000  Level Kansas City Center
11:22PM 38.9922 -92.4483 255° West 359 413 36,000  Level Kansas City Center
11:23PM 38.9656 -92.5719 255° West 359 413 36,000  Level Kansas City Center
11:24PM 38.9386 -92.6981 255° West 362 417 36,000  Level Kansas City Center
11:25PM 38.9108 -92.8247 254° West 366 421 36,000  Level Kansas City Center
11:26PM 38.8836 -92.9506 255° West 367 422 36,000  Level Kansas City Center
11:27PM 38.8553 -93.0764 254° West 367 422 36,000  Level Kansas City Center
11:28PM 38.8286 -93.2008 255° West 364 419 36,000  Level Kansas City Center
11:29PM 38.8014 -93.3228 254° West 360 414 36,000  Level Kansas City Center
11:30PM 38.7744 -93.4467 254° West 359 413 36,000  Level Kansas City Center
11:31PM 38.7472 -93.5683 254° West 358 412 36,000  Level Kansas City Center
11:32PM 38.7194 -93.6925 254° West 360 414 36,000  Level Kansas City Center
11:33PM 38.6925 -93.8133 254° West 363 418 36,000  Level Kansas City Center
11:34PM 38.6614 -93.9514 254° West 362 417 36,000  Level Kansas City Center
11:35PM 38.6342 -94.0706 254° West 364 419 36,000  Level Kansas City Center
11:36PM 38.6064 -94.1897 253° West 365 420 36,000  Level Kansas City Center
11:37PM 38.5792 -94.3094 254° West 365 420 36,000  Level Kansas City Center
11:38PM 38.5464 -94.4486 253° West 366 421 36,000  Level Kansas City Center
11:39PM 38.5189 -94.5661 253° West 362 417 36,000  Level Kansas City Center
11:40PM 38.4908 -94.6856 253° West 365 420 36,000  Level Kansas City Center
11:41PM 38.4586 -94.8247 254° West 366 421 36,000  Level Kansas City Center
11:42PM 38.4297 -94.9425 253° West 364 419 36,000  Level Kansas City Center
11:43PM 38.4011 -95.0617 253° West 366 421 36,000  Level Kansas City Center
11:44PM 38.3683 -95.1994 253° West 364 419 36,000  Level Kansas City Center
11:45PM 38.3394 -95.3161 253° West 363 418 36,000  Level Kansas City Center
11:46PM 38.3111 -95.4347 253° West 364 419 36,000 -180 Level Kansas City Center
11:47PM 38.2825 -95.5561 253° West 368 423 35,700 -840 Descending Kansas City Center
11:48PM 38.2492 -95.6919 253° West 361 415 34,400 -1,320 Descending Kansas City Center
11:49PM 38.2203 -95.8092 253° West 361 415 33,000 -2,100 Descending Kansas City Center
11:50PM 38.1919 -95.9228 252° West 354 407 30,300 -2,880 Descending Kansas City Center
11:51PM 38.1600 -96.0519 253° West 343 395 27,200 -2,880 Descending Kansas City Center
11:52PM 38.1339 -96.1583 253° West 341 392 24,500 -2,400 Descending Kansas City Center
11:53PM 38.1053 -96.2728 252° West 340 391 22,500 -2,340 Descending Kansas City Center
11:54PM 38.0772 -96.3858 253° West 338 389 19,900 -2,460 Descending Kansas City Center
11:55PM 38.0486 -96.4964 252° West 330 380 17,500 -2,520 Descending Kansas City Center
11:55PM 38.0422 -96.5172 249° West 329 379 17,100 -2,100 Descending Kansas City Center
11:56PM 38.0219 -96.6028 253° West 321 369 15,400 -2,040 Descending Kansas City Center
11:56PM 38.0156 -96.6228 248° West 312 359 15,100 -2,700 Descending Kansas City Center
11:57PM 37.9958 -96.7025 253° West 303 349 12,800 -2,880 Descending Kansas City Center
11:57PM 37.9897 -96.7200 246° West 295 339 12,300 -2,460 Descending Kansas City Center
11:58PM 37.9694 -96.8006 252° West 296 341 10,300 -2,040 Descending Kansas City Center
11:58PM 37.9622 -96.8203 245° Southwest 295 339 10,200 -420 Descending Kansas City Center
11:59PM 37.9461 -96.8925 254° West 275 316 9,900 -540 Descending Kansas City Center
11:59PM 37.9417 -96.9058 247° West 248 285 9,700 -1,320 Descending Kansas City Center
12:00AM 37.9247 -96.9725 252° West 246 283 8,600 -1,320 Descending Kansas City Center
12:00AM 37.9206 -96.9889 252° West 240 276 8,400 -1,500 Descending Kansas City Center
12:01AM 37.9053 -97.0528 253° West 240 276 7,100 -1,680 Descending Kansas City Center
12:01AM 37.8997 -97.0747 252° West 236 272 6,700 -1,440 Descending Kansas City Center
12:02AM 37.8892 -97.1311 257° West 232 267 5,700 -1,260 Descending Kansas City Center
12:02AM 37.8844 -97.1514 254° West 224 258 5,500 -1,020 Descending Kansas City Center
12:03AM 37.8606 -97.1844 228° Southwest 191 220 4,700 -1,200 Descending Kansas City Center
12:03AM 37.8511 -97.1964 225° Southwest 170 196 4,300 -1,020 Descending Kansas City Center
12:04AM 37.8203 -97.2136 204° Southwest 178 205 3,700 -840 Descending Kansas City Center
12:04AM 37.8089 -97.2164 191° South 165 190 3,500 -780 Descending Kansas City Center
12:05AM 37.7772 -97.2261 194° South 166 191 3,000 -540 Descending Kansas City Center
12:05AM 37.7681 -97.2281 190° South 148 170 3,000  Level Kansas City Center
12:06AM 37.7375 -97.2364 192° South 155 178 3,000  Level Kansas City Center
12:06AM 37.7269 -97.2397 194° South 145 167 3,000 -300 Level Kansas City Center
12:07AM 37.6992 -97.2469 192° South 148 170 2,700 -540 Descending Kansas City Center
12:07AM 37.6903 -97.2508 199° South 136 157 2,500 -720 Descending Kansas City Center
12:08AM 37.6628 -97.2578 191° South 141 162 2,000 -720 Descending Kansas City Center
12:08AM 37.6536 -97.2619 200° South 137 158 1,800 -420 Descending Kansas City Center
12:09AM 37.6197 -97.2711 192° South 139 160 1,600 -240 Descending Kansas City Center
12:11AM 37.6167 -97.2667 North  Level FlightAware Approximate